createdAt,value
2023-03-02T00:00:11.490Z,11.15
2023-03-02T00:02:40.707Z,12.90
2023-03-02T00:05:11.145Z,12.23
2023-03-02T00:07:38.567Z,13.10
2023-03-02T00:10:05.912Z,12.60
2023-03-02T00:12:36.611Z,12.65
2023-03-02T00:15:04.092Z,12.13
2023-03-02T00:17:33.624Z,12.15
2023-03-02T00:20:11.346Z,11.60
2023-03-02T00:22:42.714Z,10.80
2023-03-02T00:25:13.623Z,11.48
2023-03-02T00:27:40.645Z,11.10
2023-03-02T00:30:07.967Z,11.52
2023-03-02T00:32:36.896Z,10.48
2023-03-02T00:35:04.004Z,11.65
2023-03-02T00:37:31.164Z,11.30
2023-03-02T00:39:59.108Z,10.45
2023-03-02T00:42:27.542Z,11.25
2023-03-02T00:44:54.495Z,12.38
2023-03-02T00:47:21.809Z,10.60
2023-03-02T00:49:49.381Z,11.68
2023-03-02T00:52:17.133Z,11.07
2023-03-02T00:54:44.176Z,11.38
2023-03-02T00:59:57.503Z,11.88
2023-03-02T01:02:26.258Z,11.43
2023-03-02T01:04:53.437Z,11.77
2023-03-02T01:07:21.141Z,12.77
2023-03-02T01:09:48.604Z,11.02
2023-03-02T01:12:21.750Z,9.77
2023-03-02T01:14:51.343Z,11.65
2023-03-02T01:17:18.368Z,11.45
2023-03-02T01:19:45.452Z,11.30
2023-03-02T01:22:15.396Z,11.50
2023-03-02T01:24:42.479Z,10.95
2023-03-02T01:32:17.867Z,11.95
2023-03-02T01:34:44.979Z,10.40
2023-03-02T01:37:11.975Z,12.35
2023-03-02T01:39:39.513Z,11.38
2023-03-02T01:42:07.029Z,10.40
2023-03-02T01:44:39.408Z,10.90
2023-03-02T01:47:15.253Z,11.23
2023-03-02T01:49:44.668Z,10.48
2023-03-02T01:52:12.098Z,11.05
2023-03-02T01:54:40.106Z,10.35
2023-03-02T02:05:25.022Z,11.77
2023-03-02T02:07:53.189Z,11.57
2023-03-02T02:10:20.417Z,10.80
2023-03-02T02:12:47.394Z,11.10
2023-03-02T02:15:14.418Z,11.00
2023-03-02T02:17:41.679Z,10.68
2023-03-02T02:20:19.780Z,9.98
2023-03-02T02:22:46.924Z,11.68
2023-03-02T02:25:23.961Z,10.38
2023-03-02T02:27:51.166Z,11.80
2023-03-02T02:30:18.861Z,11.77
2023-03-02T02:35:31.941Z,10.82
2023-03-02T02:38:03.041Z,11.45
2023-03-02T02:40:40.971Z,10.60
2023-03-02T02:43:08.309Z,12.02
2023-03-02T02:45:36.534Z,11.23
2023-03-02T02:48:03.471Z,10.80
2023-03-02T02:50:32.325Z,12.27
2023-03-02T02:53:20.087Z,12.23
2023-03-02T02:55:49.041Z,11.65
2023-03-02T02:58:22.208Z,10.65
2023-03-02T03:00:49.469Z,11.07
2023-03-02T03:03:28.982Z,10.85
2023-03-02T03:05:56.405Z,11.27
2023-03-02T03:08:43.677Z,10.63
2023-03-02T03:11:11.733Z,11.43
2023-03-02T03:13:39.774Z,11.60
2023-03-02T03:16:07.255Z,11.05
2023-03-02T03:18:34.240Z,10.98
2023-03-02T03:21:01.404Z,10.65
2023-03-02T03:23:28.832Z,11.25
2023-03-02T03:25:55.915Z,11.20
2023-03-02T03:28:22.892Z,9.68
2023-03-02T03:30:49.982Z,11.13
2023-03-02T03:33:17.019Z,9.75
2023-03-02T03:35:47.553Z,11.07
2023-03-02T03:38:14.567Z,9.50
2023-03-02T03:40:41.582Z,10.38
2023-03-02T03:43:08.575Z,11.52
2023-03-02T03:45:35.966Z,11.63
2023-03-02T03:48:07.896Z,10.35
2023-03-02T03:53:12.123Z,11.68
2023-03-02T03:55:39.191Z,11.10
2023-03-02T03:58:06.256Z,10.90
2023-03-02T04:00:33.437Z,11.18
2023-03-02T04:03:00.502Z,11.48
2023-03-02T04:08:11.034Z,10.60
2023-03-02T04:10:38.156Z,9.75
2023-03-02T04:13:05.727Z,11.07
2023-03-02T04:15:32.838Z,10.15
2023-03-02T04:18:00.206Z,10.43
2023-03-02T04:23:14.105Z,10.40
2023-03-02T04:25:41.136Z,9.95
2023-03-02T04:28:08.192Z,10.75
2023-03-02T04:30:35.191Z,10.35
2023-03-02T04:33:02.228Z,10.32
2023-03-02T04:35:29.397Z,11.13
2023-03-02T04:37:56.516Z,11.32
2023-03-02T04:40:23.522Z,11.07
2023-03-02T04:42:50.569Z,11.40
2023-03-02T04:45:17.596Z,10.10
2023-03-02T04:47:44.740Z,10.82
2023-03-02T04:50:15.714Z,9.77
2023-03-02T04:52:42.900Z,10.65
2023-03-02T04:55:10.189Z,10.68
2023-03-02T04:57:37.331Z,11.55
2023-03-02T05:00:05.096Z,10.98
2023-03-02T05:02:32.216Z,11.23
2023-03-02T05:04:59.312Z,10.30
2023-03-02T05:07:26.357Z,10.50
2023-03-02T05:09:53.367Z,11.95
2023-03-02T05:12:21.609Z,11.02
2023-03-02T05:14:48.586Z,10.93
2023-03-02T05:17:15.776Z,11.63
2023-03-02T05:19:42.761Z,10.80
2023-03-02T05:22:09.825Z,10.13
2023-03-02T05:24:37.294Z,11.50
2023-03-02T05:27:04.853Z,11.32
2023-03-02T05:29:31.828Z,11.15
2023-03-02T05:31:58.883Z,12.27
2023-03-02T05:34:25.930Z,11.93
2023-03-02T05:36:52.982Z,11.25
2023-03-02T05:39:20.069Z,11.10
2023-03-02T05:41:47.106Z,12.13
2023-03-02T05:44:15.511Z,11.18
2023-03-02T05:46:42.503Z,12.48
2023-03-02T05:49:10.525Z,11.70
2023-03-02T05:51:37.591Z,11.50
2023-03-02T05:54:04.588Z,12.40
2023-03-02T05:56:32.003Z,12.52
2023-03-02T05:58:59.214Z,11.80
2023-03-02T06:01:26.391Z,12.43
2023-03-02T06:03:53.363Z,11.38
2023-03-02T06:06:20.501Z,13.43
2023-03-02T06:08:47.515Z,11.45
2023-03-02T06:11:14.584Z,10.32
2023-03-02T06:13:41.663Z,11.35
2023-03-02T06:16:09.059Z,11.43
2023-03-02T06:18:36.674Z,12.38
2023-03-02T06:21:03.818Z,11.18
2023-03-02T06:23:30.968Z,11.52
2023-03-02T06:25:59.032Z,11.80
2023-03-02T06:28:26.706Z,10.02
2023-03-02T06:30:53.837Z,10.73
2023-03-02T06:33:21.267Z,11.15
2023-03-02T06:35:49.054Z,10.85
2023-03-02T06:38:16.498Z,10.93
2023-03-02T06:40:43.857Z,10.95
2023-03-02T06:43:10.916Z,12.82
2023-03-02T06:45:38.100Z,11.10
2023-03-02T06:48:05.515Z,11.65
2023-03-02T06:50:32.677Z,10.90
2023-03-02T06:53:01.106Z,11.57
2023-03-02T06:55:28.206Z,12.38
2023-03-02T06:57:55.345Z,11.82
2023-03-02T07:00:27.927Z,12.10
2023-03-02T07:02:56.392Z,12.90
2023-03-02T07:05:24.352Z,12.75
2023-03-02T07:07:51.581Z,12.02
2023-03-02T07:10:18.645Z,11.52
2023-03-02T07:12:45.740Z,11.55
2023-03-02T07:15:14.105Z,12.32
2023-03-02T07:17:41.930Z,12.90
2023-03-02T07:20:09.447Z,12.73
2023-03-02T07:22:36.546Z,14.45
2023-03-02T07:25:03.873Z,11.18
2023-03-02T07:27:30.997Z,11.18
2023-03-02T07:29:58.148Z,11.10
2023-03-02T07:32:25.203Z,11.27
2023-03-02T07:34:52.367Z,12.23
2023-03-02T07:37:19.345Z,11.73
2023-03-02T07:39:47.743Z,12.60
2023-03-02T07:42:14.770Z,11.15
2023-03-02T07:44:42.240Z,13.15
2023-03-02T07:47:09.319Z,12.45
2023-03-02T07:49:36.502Z,12.57
2023-03-02T07:52:04.297Z,13.05
2023-03-02T07:54:31.454Z,12.93
2023-03-02T07:56:58.736Z,12.30
2023-03-02T07:59:33.252Z,11.98
2023-03-02T08:02:00.359Z,12.43
2023-03-02T08:04:27.650Z,12.88
2023-03-02T08:06:54.661Z,12.45
2023-03-02T08:09:21.674Z,12.85
2023-03-02T08:11:48.763Z,12.52
2023-03-02T08:14:15.819Z,12.40
2023-03-02T08:16:44.056Z,13.75
2023-03-02T08:19:11.071Z,11.02
2023-03-02T08:21:38.095Z,13.50
2023-03-02T08:24:05.176Z,12.13
2023-03-02T08:26:32.298Z,10.90
2023-03-02T08:28:59.485Z,10.10
2023-03-02T08:31:27.084Z,12.55
2023-03-02T08:33:54.188Z,12.48
2023-03-02T08:36:21.812Z,11.50
2023-03-02T08:38:49.633Z,12.27
2023-03-02T08:41:18.273Z,11.85
2023-03-02T08:43:45.299Z,11.07
2023-03-02T08:46:13.432Z,9.70
2023-03-02T08:48:40.642Z,13.10
2023-03-02T08:51:09.178Z,10.88
2023-03-02T08:53:37.975Z,11.75
2023-03-02T08:56:07.440Z,10.88
2023-03-02T08:58:34.539Z,11.40
2023-03-02T09:01:01.626Z,10.88
2023-03-02T09:03:28.651Z,12.13
2023-03-02T09:05:55.752Z,10.73
2023-03-02T09:08:22.866Z,11.25
2023-03-02T09:10:49.927Z,11.82
2023-03-02T09:13:17.089Z,11.32
2023-03-02T09:15:44.193Z,11.05
2023-03-02T09:18:11.261Z,11.13
2023-03-02T09:20:38.293Z,11.85
2023-03-02T09:23:05.346Z,11.75
2023-03-02T09:25:40.233Z,10.45
2023-03-02T09:28:07.291Z,10.75
2023-03-02T09:30:34.366Z,10.98
2023-03-02T09:33:01.461Z,11.43
2023-03-02T09:35:29.108Z,12.50
2023-03-02T09:37:56.150Z,11.10
2023-03-02T09:43:04.619Z,12.75
2023-03-02T09:45:52.879Z,12.50
2023-03-02T09:48:38.787Z,12.27
2023-03-02T09:51:13.270Z,12.15
2023-03-02T09:53:46.153Z,12.25
2023-03-02T09:56:18.502Z,12.70
2023-03-02T09:58:50.669Z,11.18
2023-03-02T10:06:25.546Z,11.63
2023-03-02T10:08:52.804Z,11.38
2023-03-02T10:11:23.459Z,10.60
2023-03-02T10:13:54.317Z,10.30
2023-03-02T10:19:05.310Z,10.40
2023-03-02T10:21:52.360Z,11.73
2023-03-02T10:24:37.871Z,11.07
2023-03-02T10:27:13.785Z,10.10
2023-03-02T10:29:50.730Z,10.55
2023-03-02T10:32:24.772Z,11.13
2023-03-02T10:34:53.052Z,10.18
2023-03-02T10:37:23.161Z,11.05
2023-03-02T10:39:50.447Z,11.38
2023-03-02T10:42:30.453Z,10.07
2023-03-02T10:45:00.092Z,10.45
2023-03-02T10:47:28.248Z,10.45
2023-03-02T10:49:56.328Z,11.32
2023-03-02T10:52:27.753Z,10.27
2023-03-02T11:01:17.096Z,11.30
2023-03-02T11:03:54.602Z,10.90
2023-03-02T11:06:25.235Z,10.80
2023-03-02T11:08:59.877Z,10.70
2023-03-02T11:11:27.267Z,11.98
2023-03-02T11:13:56.326Z,10.10
2023-03-02T11:16:25.381Z,10.98
2023-03-02T11:27:31.530Z,11.70
2023-03-02T11:30:01.490Z,10.57
2023-03-02T11:32:40.672Z,10.85
2023-03-02T11:35:17.048Z,10.25
2023-03-02T11:37:54.759Z,10.07
2023-03-02T11:40:33.885Z,11.23
2023-03-02T11:43:04.678Z,10.05
2023-03-02T11:45:33.111Z,10.55
2023-03-02T11:48:05.243Z,9.55
2023-03-02T11:50:38.078Z,11.25
2023-03-02T11:53:07.745Z,10.93
2023-03-02T11:55:40.008Z,9.13
2023-03-02T11:58:07.813Z,9.85
2023-03-02T12:00:39.553Z,10.68
2023-03-02T12:03:08.194Z,9.55
2023-03-02T12:05:36.584Z,9.38
2023-03-02T12:08:06.068Z,10.25
2023-03-02T12:10:36.019Z,9.40
2023-03-02T12:13:07.828Z,10.07
2023-03-02T12:15:37.461Z,10.13
2023-03-02T12:18:16.522Z,9.67
2023-03-02T12:20:46.098Z,10.57
2023-03-02T12:23:24.378Z,9.73
2023-03-02T12:26:02.297Z,11.40
2023-03-02T12:28:40.228Z,9.73
2023-03-02T12:31:14.166Z,9.57
2023-03-02T12:33:47.209Z,9.07
2023-03-02T12:36:19.502Z,9.40
2023-03-02T12:39:15.188Z,9.38
2023-03-02T12:42:12.797Z,9.15
2023-03-02T12:44:44.202Z,9.10
2023-03-02T12:47:24.477Z,9.48
2023-03-02T12:49:54.505Z,9.27
2023-03-02T12:52:31.277Z,10.20
2023-03-02T12:55:03.516Z,9.07
2023-03-02T12:57:34.264Z,8.90
2023-03-02T13:00:03.443Z,8.95
2023-03-02T13:02:37.125Z,10.27
2023-03-02T13:05:10.446Z,10.35
2023-03-02T13:07:48.321Z,10.20
2023-03-02T13:10:36.056Z,9.52
2023-03-02T13:13:05.062Z,9.23
2023-03-02T13:15:33.236Z,10.52
2023-03-02T13:18:01.144Z,9.57
2023-03-02T13:22:59.850Z,9.52
2023-03-02T13:25:36.149Z,10.48
2023-03-02T13:28:13.539Z,9.13
2023-03-02T13:30:49.739Z,8.07
2023-03-02T13:36:52.925Z,8.88
2023-03-02T13:45:41.028Z,8.32
2023-03-02T13:48:15.387Z,10.10
2023-03-02T13:50:51.287Z,8.27
2023-03-02T13:53:18.307Z,8.57
2023-03-02T13:55:45.478Z,8.70
2023-03-02T13:58:14.876Z,8.90
2023-03-02T14:00:42.050Z,9.68
2023-03-02T14:03:32.100Z,9.23
2023-03-02T14:05:59.904Z,8.90
2023-03-02T14:08:27.041Z,9.00
2023-03-02T14:10:57.336Z,9.38
2023-03-02T14:15:52.385Z,8.30
2023-03-02T14:18:39.310Z,8.95
2023-03-02T14:21:07.184Z,9.70
2023-03-02T14:23:34.352Z,9.65
2023-03-02T14:26:01.422Z,9.45
2023-03-02T14:28:35.521Z,8.65
2023-03-02T14:31:02.605Z,9.18
2023-03-02T14:33:29.650Z,10.00
2023-03-02T14:35:58.169Z,8.45
2023-03-02T14:38:27.116Z,9.68
2023-03-02T14:40:54.424Z,9.10
2023-03-02T14:43:23.265Z,9.32
2023-03-02T14:45:50.707Z,8.73
2023-03-02T14:48:26.122Z,8.60
2023-03-02T14:50:53.140Z,8.63
2023-03-02T14:53:21.460Z,8.57
2023-03-02T14:55:50.614Z,8.80
2023-03-02T14:58:20.650Z,8.15
2023-03-02T15:00:53.010Z,7.72
2023-03-02T15:03:31.732Z,8.93
2023-03-02T15:06:01.755Z,8.88
2023-03-02T15:08:29.979Z,9.48
2023-03-02T15:11:02.388Z,8.68
2023-03-02T15:13:38.752Z,7.93
2023-03-02T15:16:12.612Z,7.78
2023-03-02T15:18:43.453Z,8.25
2023-03-02T15:26:11.722Z,7.88
2023-03-02T15:28:39.167Z,8.90
2023-03-02T15:31:10.891Z,8.05
2023-03-02T15:33:41.569Z,7.90
2023-03-02T15:41:38.316Z,8.13
2023-03-02T15:44:06.085Z,8.10
2023-03-02T15:46:36.651Z,7.55
2023-03-02T15:49:07.608Z,7.45
2023-03-02T15:51:35.315Z,7.03
2023-03-02T15:54:09.368Z,6.95
2023-03-02T15:56:44.140Z,6.93
2023-03-02T15:59:12.595Z,7.43
2023-03-02T16:01:42.742Z,7.28
2023-03-02T16:04:10.658Z,6.97
2023-03-02T16:06:38.397Z,6.72
2023-03-02T16:09:07.780Z,6.95
2023-03-02T16:11:35.513Z,6.73
2023-03-02T16:14:08.082Z,7.55
2023-03-02T16:16:37.754Z,6.15
2023-03-02T16:19:05.154Z,8.25
2023-03-02T16:21:32.554Z,6.95
2023-03-02T16:24:04.087Z,6.85
2023-03-02T16:26:32.620Z,6.28
2023-03-02T16:29:00.483Z,6.28
2023-03-02T16:31:33.458Z,6.93
2023-03-02T16:34:07.912Z,6.57
2023-03-02T16:36:36.312Z,6.40
2023-03-02T16:39:04.947Z,6.05
2023-03-02T16:41:34.939Z,6.72
2023-03-02T16:44:05.524Z,6.20
2023-03-02T16:46:36.436Z,6.82
2023-03-02T16:49:07.511Z,6.60
2023-03-02T16:51:34.571Z,6.28
2023-03-02T16:54:01.623Z,6.40
2023-03-02T16:56:28.755Z,6.38
2023-03-02T16:58:56.010Z,6.07
2023-03-02T17:01:23.827Z,7.30
2023-03-02T17:03:51.100Z,7.50
2023-03-02T17:06:23.466Z,6.43
2023-03-02T17:08:51.212Z,5.65
2023-03-02T17:11:18.832Z,6.22
2023-03-02T17:13:46.071Z,5.63
2023-03-02T17:16:13.414Z,6.03
2023-03-02T17:18:40.917Z,6.20
2023-03-02T17:21:08.288Z,5.18
2023-03-02T17:23:58.609Z,5.10
2023-03-02T17:26:25.687Z,4.28
2023-03-02T17:28:52.744Z,4.32
2023-03-02T17:31:19.848Z,4.57
2023-03-02T17:33:46.882Z,5.25
2023-03-02T17:36:15.252Z,4.72
2023-03-02T17:38:48.561Z,4.65
2023-03-02T17:41:18.031Z,5.00
2023-03-02T17:43:45.132Z,4.90
2023-03-02T17:46:20.472Z,4.88
2023-03-02T17:48:49.072Z,5.30
2023-03-02T17:51:16.403Z,5.50
2023-03-02T17:53:43.903Z,5.47
2023-03-02T17:56:11.204Z,6.40
2023-03-02T17:58:45.055Z,6.55
2023-03-02T18:01:13.140Z,6.80
2023-03-02T18:03:40.341Z,6.28
2023-03-02T18:06:10.436Z,7.32
2023-03-02T18:08:37.838Z,7.18
2023-03-02T18:11:05.599Z,7.57
2023-03-02T18:13:33.037Z,7.60
2023-03-02T18:16:00.401Z,7.25
2023-03-02T18:18:27.691Z,7.40
2023-03-02T18:20:55.981Z,6.60
2023-03-02T18:23:23.251Z,5.90
2023-03-02T18:25:50.493Z,6.18
2023-03-02T18:28:18.699Z,6.63
2023-03-02T18:30:45.899Z,5.80
2023-03-02T18:33:13.587Z,5.55
2023-03-02T18:35:40.940Z,5.35
2023-03-02T18:38:08.251Z,5.82
2023-03-02T18:40:35.487Z,6.38
2023-03-02T18:43:02.796Z,6.72
2023-03-02T18:45:33.201Z,5.30
2023-03-02T18:48:02.925Z,6.63
2023-03-02T18:50:33.431Z,4.87
2023-03-02T18:53:03.676Z,6.40
2023-03-02T18:55:30.966Z,6.47
2023-03-02T18:58:07.798Z,6.35
2023-03-02T19:00:37.716Z,6.45
2023-03-02T19:03:07.218Z,6.40
2023-03-02T19:05:34.512Z,7.80
2023-03-02T19:08:02.692Z,7.13
2023-03-02T19:10:30.015Z,7.15
2023-03-02T19:12:57.005Z,6.57
2023-03-02T19:15:24.892Z,6.35
2023-03-02T19:17:52.885Z,6.53
2023-03-02T19:20:20.950Z,6.78
2023-03-02T19:22:54.647Z,7.95
2023-03-02T19:25:24.737Z,6.85
2023-03-02T19:27:52.198Z,7.05
2023-03-02T19:30:24.089Z,7.03
2023-03-02T19:32:54.265Z,6.97
2023-03-02T19:35:22.717Z,7.05
2023-03-02T19:37:52.665Z,7.43
2023-03-02T19:40:24.414Z,7.28
2023-03-02T19:42:52.050Z,7.82
2023-03-02T19:45:21.094Z,7.32
2023-03-02T19:47:51.042Z,6.30
2023-03-02T19:50:19.431Z,7.63
2023-03-02T19:52:48.903Z,7.80
2023-03-02T19:55:16.585Z,6.88
2023-03-02T19:57:44.017Z,7.32
2023-03-02T20:00:15.612Z,8.00
2023-03-02T20:02:49.078Z,7.90
2023-03-02T20:05:20.310Z,7.55
2023-03-02T20:07:47.743Z,7.95
2023-03-02T20:10:25.045Z,6.68
2023-03-02T20:12:52.263Z,8.50
2023-03-02T20:15:23.908Z,7.43
2023-03-02T20:17:51.181Z,7.50
2023-03-02T20:20:21.588Z,7.30
2023-03-02T20:22:49.839Z,8.13
2023-03-02T20:25:20.308Z,7.45
2023-03-02T20:27:52.004Z,8.10
2023-03-02T20:30:27.638Z,7.85
2023-03-02T20:32:56.479Z,8.10
2023-03-02T20:35:24.154Z,7.40
2023-03-02T20:37:51.585Z,7.28
2023-03-02T20:40:21.569Z,7.60
2023-03-02T20:42:51.761Z,8.05
2023-03-02T20:45:19.109Z,7.80
2023-03-02T20:47:58.577Z,7.70
2023-03-02T20:50:30.375Z,8.10
2023-03-02T20:53:05.636Z,7.32
2023-03-02T20:55:32.723Z,7.63
2023-03-02T20:58:01.084Z,8.32
2023-03-02T21:00:30.018Z,8.88
2023-03-02T21:03:00.498Z,9.00
2023-03-02T21:05:29.259Z,8.80
2023-03-02T21:07:59.294Z,7.72
2023-03-02T21:10:28.913Z,8.05
2023-03-02T21:12:59.069Z,8.70
2023-03-02T21:15:27.520Z,8.98
2023-03-02T21:17:57.267Z,8.10
2023-03-02T21:20:27.199Z,8.15
2023-03-02T21:22:54.579Z,9.23
2023-03-02T21:25:22.219Z,9.30
2023-03-02T21:27:52.172Z,9.05
2023-03-02T21:30:24.114Z,8.93
2023-03-02T21:32:51.717Z,9.27
2023-03-02T21:35:23.615Z,10.45
2023-03-02T21:37:53.844Z,9.13
2023-03-02T21:40:23.534Z,9.75
2023-03-02T21:42:50.773Z,10.18
2023-03-02T21:45:21.323Z,10.75
2023-03-02T21:47:48.596Z,11.13
2023-03-02T21:50:17.303Z,10.55
2023-03-02T21:52:44.545Z,10.35
2023-03-02T21:55:13.724Z,10.77
2023-03-02T21:57:41.564Z,10.63
2023-03-02T22:00:18.777Z,12.02
2023-03-02T22:02:53.642Z,10.02
2023-03-02T22:05:20.922Z,11.45
2023-03-02T22:07:48.604Z,11.23
2023-03-02T22:10:27.043Z,12.40
2023-03-02T22:12:56.172Z,10.98
2023-03-02T22:15:24.246Z,13.85
2023-03-02T22:17:51.531Z,12.10
2023-03-02T22:20:26.438Z,12.73
2023-03-02T22:22:57.261Z,11.88
2023-03-02T22:25:24.528Z,11.48
2023-03-02T22:28:01.749Z,11.27
2023-03-02T22:30:29.064Z,10.88
2023-03-02T22:32:56.828Z,12.05
2023-03-02T22:38:16.279Z,12.60
2023-03-02T22:40:45.997Z,12.88
2023-03-02T22:43:30.332Z,13.77
2023-03-02T22:46:15.508Z,13.38
2023-03-02T22:48:50.150Z,12.75
2023-03-02T22:51:21.374Z,13.40
2023-03-02T22:54:04.362Z,13.32
2023-03-02T23:05:57.674Z,12.70
2023-03-02T23:14:34.714Z,12.63
2023-03-02T23:20:15.303Z,11.23
2023-03-02T23:22:46.946Z,10.38
2023-03-02T23:25:15.760Z,11.32
2023-03-02T23:27:46.040Z,12.50
2023-03-02T23:30:17.870Z,13.00
2023-03-02T23:32:45.165Z,11.52
2023-03-02T23:35:12.458Z,12.82
2023-03-02T23:37:42.160Z,12.68
2023-03-02T23:40:09.776Z,11.68
2023-03-02T23:42:36.817Z,11.43
2023-03-02T23:45:03.921Z,13.68
2023-03-02T23:47:31.437Z,11.43
2023-03-02T23:49:58.744Z,12.63
2023-03-02T23:52:29.113Z,12.77
2023-03-02T23:54:56.335Z,13.50
2023-03-02T23:57:27.441Z,12.85
2023-03-02T23:59:54.670Z,12.23
